Terminal Aerodrome Forecast
Issued by NWS

Home | Current Version | Previous Version | Text Only | Print | Product List | Glossary On
Versions: 1 2 3 4 5 6 7 8 9 10 11 12 13 14 15 16 17 18 19 20 21
000
FTUS43 KABR 250400 AAA
TAFPIR
TAF AMD
KPIR 250439Z 2505/2524 30009KT P6SM OVC060
     FM251000 26006KT P6SM BKN025 BKN060
     FM251500 16008KT P6SM SCT030 SCT120
     FM252100 15010KT P6SM BKN025 OVC040
      TEMPO 2521/2524 -RA=

USA.gov is the U.S. government's official web portal to all federal, state and local government web resources and services.